Kezdőlap
METAR-TAF:

METAR-TAF

Repülőterek :

Katima Mulilo, Namíbia

földrajzi szélesség: 17-38-04S, földrajzi hosszúság: 024-10-36E, magasság: 985 m

Jelenlegi meteorológiai megfigyelések

A jelentés 1 órával és 3 perccel ezelõtt készült, 06:00 UTC
Kelet-északkeleti szél 4 kt
Hőmérséklet 14°C
Páratartalom 55%
Légköri nyomás 1025 hPa

METAR: FYKM 280600Z AUTO 07004KT //// // ////// 14/05 Q1025

Idő: 09:03 (07:03 UTC)

Előrejelzés

A jelentés 2 órával és 3 perccel ezelõtt készült, 05:00 UTC
Az előrejelzés 28-én 06 óra UTC és 28-én 15 óra UTC között érvényes
Északi szél kt
Látótávolság 10 km, vagy több
felhőtlen 1500 m magasságban, és nincs gomolyfelhõ
28-én 07 óra UTC és 28-én 09 óra UTC között fokozatosan kialakuló
Kelet-északkeleti szél 7 kt

TAF: FYKM 280500Z 2806/2815 00000KT CAVOK BECMG 2807/2809 07007KT

Meteorológiai megfigyelések és előrejelzések több, mint 4000 repülőtéren (METAR és TAF jelentéseket).

A térképen piros és sárga pontok jelzik az elérhető meteorológiai állomásokat.

Mozgassa az egeret a pont fölött, hogy megjelenjen az állomás neve.

Azután kattintson az időjárási megfigyelések és előrejelzések megtekintéséhez.

A térkép megváltoztatása: kattintson a fekete keresztel jelölt zöld gombra ráközelítéshez, a vonallal jelölt zöld gombra távolításhoz, vagy a zöld nyilakra a szomszédos térképek eléréséhez.


METAR-TAF: